Tropical Cyclones
[Index]
Main Index Home Page Stock Weather Photos Extreme Storms Discussion Storm News and Storm Chasing Reports Tropical Cyclones / Hurricanes / Typhoons Weather Data and Links Wild Fires / Bushfires Weather Observation Techniques Weather Picture Catalogue Tornado Pictures and Reports Stock Video Footage and DVDs for sale
Season 1962-1963 Tropical Cyclone 196341 Track Map
Season 1962-1963 Summaries: [BoM-AU] [JTWC-AU] [JTWC-SIO] [JTWC-SPAC] [JTWC-SH]
<<- Previous TC | JTWC 1962-1963 Season | Next TC ->>

click for intensity scale information  Lat/long Grid: Show Hide

 Date Labels: Show Hide

Joint Typhoon Warning Centre Cyclone Data

Name: 196341
Number: 488 / 6341

15 Mar 1963 06:00 UTC to 24 Mar 1963 00:00 UTC

    date/time    lat    long     hPa   cat  kts
1963-03-15 06   10.3   101.0                              
1963-03-15 12   10.6   100.7                              
1963-03-15 18   10.8   100.3                              
1963-03-16 00   11.0   100.1                              
1963-03-16 06   11.5    99.7                              
1963-03-16 12   11.9    99.2                              
1963-03-16 18   12.4    98.6                              
1963-03-17 00   12.8    98.1                              
1963-03-17 06   13.2    97.6                              
1963-03-17 12   13.5    97.2                              
1963-03-17 18   13.8    96.7                              
1963-03-18 00   14.0    96.1                              
1963-03-18 06   14.4    95.4                              
1963-03-18 12   15.0    94.6                              
1963-03-18 18   15.9    93.8                              
1963-03-19 00   16.9    93.0                              
1963-03-19 06   17.4    92.5                              
1963-03-19 12   17.8    92.3                              
1963-03-19 18   18.3    92.2                              
1963-03-20 00   18.8    92.0                              
1963-03-20 06   19.1    91.9                              
1963-03-20 12   19.4    91.8                              
1963-03-20 18   19.6    91.8                              
1963-03-21 00   19.9    91.9                              
1963-03-21 06   20.5    92.0                              
1963-03-21 12   21.1    92.3                              
1963-03-21 18   21.6    92.5                              
1963-03-22 00   21.9    92.9                              
1963-03-22 06   22.3    94.0                              
1963-03-22 12   22.6    95.5                              
1963-03-22 18   22.8    96.9                              
1963-03-23 00   22.9    98.0                              
1963-03-23 06   22.9    98.0                              
1963-03-23 12   22.9    98.0                              
1963-03-23 18   22.9    98.0                              
1963-03-24 00   22.9    98.0                              
Winds are 1-min average.

Tropical cyclone tracks developed by Michael Bath using data from the Joint Typhoon Warning Centre Best Tracks and Google Maps.


[Australian Severe Weather index] [Copyright Notice] [Email Contacts] [Search This Site] [Privacy Policy]
Document: tropical_cyclone_196341.htm Updated: 18 September 2016